Time,TemperatureF,DewpointF,PressureIn,WindDirection,WindDirectionDegrees,WindSpeedMPH,WindSpeedGustMPH,Humidity,HourlyPrecipIn,Conditions,Clouds,dailyrainin,SoftwareType,DateUTC
2014-10-01 00:02:00,59.4,57.6,29.97,ENE,72,0.0,0.0,94,0.00,,---,0.00,VWS V13.01,2014-10-01 04:02:00,
2014-10-01 00:07:00,59.4,57.6,29.97,ENE,72,0.0,0.0,94,0.00,,---,0.00,VWS V13.01,2014-10-01 04:07:00,
2014-10-01 00:12:00,59.4,57.9,29.97,ENE,67,0.0,0.0,95,0.00,,---,0.00,VWS V13.01,2014-10-01 04:12:00,
2014-10-01 00:17:00,59.4,57.9,29.97,ENE,63,0.0,0.0,95,0.00,,---,0.00,VWS V13.01,2014-10-01 04:17:00,
2014-10-01 00:22:00,59.4,57.9,29.97,ENE,63,0.0,0.0,95,0.00,,---,0.00,VWS V13.01,2014-10-01 04:22:00,
2014-10-01 00:27:00,59.4,57.9,29.97,ENE,63,0.0,0.0,95,0.00,,---,0.00,VWS V13.01,2014-10-01 04:27:00,
2014-10-01 00:32:00,59.2,57.8,29.97,ENE,63,0.0,0.0,95,0.00,,---,0.00,VWS V13.01,2014-10-01 04:32:00,
2014-10-01 00:38:00,59.2,57.8,29.97,ENE,63,0.0,0.0,95,0.00,,---,0.00,VWS V13.01,2014-10-01 04:38:00,
2014-10-01 00:44:00,59.2,57.8,29.97,ENE,63,0.0,0.0,95,0.00,,---,0.00,VWS V13.01,2014-10-01 04:44:00,
2014-10-01 00:49:00,59.2,58.0,29.97,ENE,63,0.0,0.0,96,0.00,,---,0.00,VWS V13.01,2014-10-01 04:49:00,
2014-10-01 00:54:00,59.4,58.2,29.97,ENE,63,0.0,0.0,96,0.00,,---,0.00,VWS V13.01,2014-10-01 04:54:00,
2014-10-01 00:57:00,59.4,58.2,29.97,ENE,63,0.0,0.0,96,0.00,,---,0.00,VWS V13.01,2014-10-01 04:57:00,
2014-10-01 01:02:00,59.4,58.2,29.97,ENE,63,0.0,0.0,96,0.00,,---,0.00,VWS V13.01,2014-10-01 05:02:00,
2014-10-01 01:07:00,59.4,58.2,29.97,ENE,63,0.0,0.0,96,0.00,,---,0.00,VWS V13.01,2014-10-01 05:07:00,
2014-10-01 01:12:00,59.2,58.0,29.97,NE,56,0.0,0.0,96,0.00,,---,0.00,VWS V13.01,2014-10-01 05:12:00,
2014-10-01 01:16:00,59.2,58.0,29.97,NE,56,0.0,0.0,96,0.00,,---,0.00,VWS V13.01,2014-10-01 05:16:00,
2014-10-01 01:21:00,59.2,58.0,29.97,NE,56,0.0,0.0,96,0.00,,---,0.00,VWS V13.01,2014-10-01 05:21:00,
2014-10-01 01:26:00,59.2,58.0,29.97,North,353,0.0,0.0,96,0.00,,---,0.00,VWS V13.01,2014-10-01 05:26:00,
2014-10-01 01:31:00,59.2,58.3,29.97,ENE,58,0.0,0.0,97,0.00,,---,0.00,VWS V13.01,2014-10-01 05:31:00,
2014-10-01 01:36:00,59.2,58.3,29.97,NE,38,0.0,0.0,97,0.00,,---,0.00,VWS V13.01,2014-10-01 05:36:00,
2014-10-01 01:41:00,59.2,58.3,29.97,East,89,0.0,0.0,97,0.00,,---,0.00,VWS V13.01,2014-10-01 05:41:00,
2014-10-01 01:46:00,59.0,58.2,29.97,NE,50,4.0,4.5,97,0.00,,---,0.00,VWS V13.01,2014-10-01 05:46:00,
2014-10-01 01:50:00,59.0,58.2,29.97,NE,50,5.4,5.4,97,0.00,,---,0.00,VWS V13.01,2014-10-01 05:50:00,
2014-10-01 01:55:00,58.8,58.0,29.97,NE,45,5.4,5.8,97,0.00,,---,0.00,VWS V13.01,2014-10-01 05:55:00,
2014-10-01 02:00:00,58.6,58.1,29.97,NNE,27,0.0,2.2,98,0.00,,---,0.00,VWS V13.01,2014-10-01 06:00:00,
2014-10-01 02:05:00,58.5,57.9,29.97,NNE,18,3.6,7.6,98,0.00,,---,0.00,VWS V13.01,2014-10-01 06:05:00,
2014-10-01 02:10:00,58.5,57.9,29.97,North,357,3.1,3.1,98,0.00,,---,0.00,VWS V13.01,2014-10-01 06:10:00,
2014-10-01 02:15:00,58.5,57.9,29.97,NE,40,5.4,5.8,98,0.00,,---,0.00,VWS V13.01,2014-10-01 06:15:00,
2014-10-01 02:21:00,58.3,57.7,29.97,NE,49,0.0,0.0,98,0.00,,---,0.00,VWS V13.01,2014-10-01 06:21:00,
2014-10-01 02:26:00,58.3,57.7,29.97,NE,42,3.6,4.0,98,0.00,,---,0.00,VWS V13.01,2014-10-01 06:26:00,
2014-10-01 02:31:00,58.3,57.7,29.97,NE,38,0.0,3.1,98,0.00,,---,0.00,VWS V13.01,2014-10-01 06:31:00,
2014-10-01 02:36:00,58.3,57.7,29.97,NNE,22,2.7,3.1,98,0.00,,---,0.00,VWS V13.01,2014-10-01 06:36:00,
2014-10-01 02:41:00,58.3,57.7,29.97,ENE,71,0.0,0.0,98,0.00,,---,0.00,VWS V13.01,2014-10-01 06:41:00,
2014-10-01 02:42:00,58.3,57.7,29.97,ENE,71,0.0,0.0,98,0.00,,---,0.00,VWS V13.01,2014-10-01 06:42:00,
2014-10-01 02:47:00,58.3,57.7,29.97,ENE,71,0.0,0.0,98,0.00,,---,0.00,VWS V13.01,2014-10-01 06:47:00,
2014-10-01 02:52:00,58.3,57.7,30.00,ENE,78,0.0,0.0,98,0.00,,---,0.00,VWS V13.01,2014-10-01 06:52:00,
2014-10-01 02:57:00,58.3,57.7,30.00,NE,38,0.0,0.0,98,0.00,,---,0.00,VWS V13.01,2014-10-01 06:57:00,
2014-10-01 03:02:00,58.3,57.7,30.00,NE,38,0.0,0.0,98,0.00,,---,0.00,VWS V13.01,2014-10-01 07:02:00,
2014-10-01 03:07:00,58.3,57.7,29.97,NE,38,0.0,0.0,98,0.00,,---,0.00,VWS V13.01,2014-10-01 07:07:00,
2014-10-01 03:12:00,58.3,57.7,29.97,NE,38,0.0,0.0,98,0.00,,---,0.00,VWS V13.01,2014-10-01 07:12:00,
2014-10-01 03:18:00,58.3,57.7,29.97,NE,38,0.0,0.0,98,0.00,,---,0.00,VWS V13.01,2014-10-01 07:18:00,
2014-10-01 03:23:00,58.3,57.7,30.00,NE,38,0.0,0.0,98,0.00,,---,0.00,VWS V13.01,2014-10-01 07:23:00,
2014-10-01 03:28:00,58.3,57.7,30.00,NE,38,0.0,0.0,98,0.00,,---,0.00,VWS V13.01,2014-10-01 07:28:00,
2014-10-01 03:33:00,58.3,57.7,30.00,NE,38,0.0,0.0,98,0.00,,---,0.00,VWS V13.01,2014-10-01 07:33:00,
2014-10-01 03:38:00,58.3,57.7,29.97,NE,38,0.0,0.0,98,0.00,,---,0.00,VWS V13.01,2014-10-01 07:38:00,
2014-10-01 03:43:00,58.3,57.7,29.97,NE,38,0.0,0.0,98,0.00,,---,0.00,VWS V13.01,2014-10-01 07:43:00,
2014-10-01 03:46:00,58.1,57.5,29.97,NE,38,0.0,0.0,98,0.00,,---,0.00,VWS V13.01,2014-10-01 07:46:00,
2014-10-01 03:51:00,58.1,57.5,29.97,North,350,0.0,0.0,98,0.00,,---,0.00,VWS V13.01,2014-10-01 07:51:00,
2014-10-01 03:56:00,58.1,57.5,29.97,NNE,30,4.0,4.0,98,0.00,,---,0.00,VWS V13.01,2014-10-01 07:56:00,
2014-10-01 04:01:00,58.1,57.5,29.97,North,353,0.0,0.0,98,0.00,,---,0.00,VWS V13.01,2014-10-01 08:01:00,
2014-10-01 04:07:00,58.1,57.5,29.97,North,353,0.0,0.0,98,0.00,,---,0.00,VWS V13.01,2014-10-01 08:07:00,
2014-10-01 04:12:00,58.1,57.5,29.97,North,353,0.0,0.0,98,0.00,,---,0.00,VWS V13.01,2014-10-01 08:12:00,
2014-10-01 04:17:00,58.1,57.5,29.97,NE,46,0.0,0.0,98,0.00,,---,0.00,VWS V13.01,2014-10-01 08:17:00,
2014-10-01 04:22:00,58.1,57.5,30.00,NE,46,0.0,0.0,98,0.00,,---,0.00,VWS V13.01,2014-10-01 08:22:00,
2014-10-01 04:27:00,58.1,57.5,30.00,NE,46,0.0,0.0,98,0.00,,---,0.00,VWS V13.01,2014-10-01 08:27:00,
2014-10-01 04:32:00,58.1,57.5,30.00,NE,46,0.0,0.0,98,0.00,,---,0.00,VWS V13.01,2014-10-01 08:32:00,
2014-10-01 04:37:00,58.1,57.5,30.00,NE,46,0.0,0.0,98,0.00,,---,0.00,VWS V13.01,2014-10-01 08:37:00,
2014-10-01 04:42:00,58.1,57.5,30.00,NE,46,0.0,0.0,98,0.00,,---,0.00,VWS V13.01,2014-10-01 08:42:00,
2014-10-01 04:47:00,58.1,57.5,30.00,NE,46,0.0,0.0,98,0.00,,---,0.00,VWS V13.01,2014-10-01 08:47:00,
2014-10-01 04:53:00,58.1,57.5,30.00,NE,46,0.0,0.0,98,0.00,,---,0.00,VWS V13.01,2014-10-01 08:53:00,
2014-10-01 04:58:00,58.1,57.5,30.00,NE,46,0.0,0.0,98,0.00,,---,0.00,VWS V13.01,2014-10-01 08:58:00,
2014-10-01 05:03:00,58.1,57.5,30.00,NE,46,0.0,0.0,98,0.00,,---,0.00,VWS V13.01,2014-10-01 09:03:00,
2014-10-01 05:09:00,58.1,57.5,30.00,NNE,25,0.0,0.0,98,0.00,,---,0.00,VWS V13.01,2014-10-01 09:09:00,
2014-10-01 05:14:00,58.1,57.5,30.00,North,357,0.0,0.0,98,0.00,,---,0.00,VWS V13.01,2014-10-01 09:14:00,
2014-10-01 05:19:00,58.1,57.5,30.00,NNE,25,0.0,0.0,98,0.00,,---,0.00,VWS V13.01,2014-10-01 09:19:00,
2014-10-01 05:24:00,58.1,57.5,30.00,NE,52,0.0,0.0,98,0.00,,---,0.00,VWS V13.01,2014-10-01 09:24:00,
2014-10-01 05:29:00,58.1,57.5,30.00,NNE,17,0.0,0.0,98,0.00,,---,0.00,VWS V13.01,2014-10-01 09:29:00,
2014-10-01 05:34:00,58.1,57.5,30.00,North,353,0.0,0.0,98,0.00,,---,0.00,VWS V13.01,2014-10-01 09:34:00,
2014-10-01 05:39:00,58.1,57.5,30.00,North,357,0.0,0.0,98,0.00,,---,0.00,VWS V13.01,2014-10-01 09:39:00,
2014-10-01 05:44:00,58.1,57.5,30.00,North,357,0.0,0.0,98,0.00,,---,0.00,VWS V13.01,2014-10-01 09:44:00,
2014-10-01 05:45:00,58.1,57.5,30.00,North,357,0.0,0.0,98,0.00,,---,0.00,VWS V13.01,2014-10-01 09:45:00,
2014-10-01 05:50:00,58.1,57.5,30.00,NE,47,0.0,0.0,98,0.00,,---,0.00,VWS V13.01,2014-10-01 09:50:00,
2014-10-01 05:55:00,58.1,57.5,30.00,North,4,0.0,0.0,98,0.00,,---,0.00,VWS V13.01,2014-10-01 09:55:00,
2014-10-01 06:00:00,58.1,57.5,30.00,North,4,0.0,0.0,98,0.00,,---,0.00,VWS V13.01,2014-10-01 10:00:00,
2014-10-01 06:05:00,58.1,57.5,30.00,North,4,0.0,0.0,98,0.00,,---,0.00,VWS V13.01,2014-10-01 10:05:00,
2014-10-01 06:10:00,58.1,57.5,30.00,North,4,0.0,0.0,98,0.00,,---,0.00,VWS V13.01,2014-10-01 10:10:00,
2014-10-01 06:15:00,58.1,57.5,30.00,North,4,0.0,0.0,98,0.00,,---,0.00,VWS V13.01,2014-10-01 10:15:00,
2014-10-01 06:20:00,58.1,57.5,30.00,North,4,0.0,0.0,98,0.00,,---,0.00,VWS V13.01,2014-10-01 10:20:00,
2014-10-01 06:25:00,58.3,57.7,30.00,North,4,0.0,0.0,98,0.00,,---,0.00,VWS V13.01,2014-10-01 10:25:00,
2014-10-01 06:30:00,58.3,57.7,30.00,North,4,0.0,0.0,98,0.00,,---,0.00,VWS V13.01,2014-10-01 10:30:00,
2014-10-01 06:35:00,58.3,57.7,30.00,North,4,0.0,0.0,98,0.00,,---,0.00,VWS V13.01,2014-10-01 10:35:00,
2014-10-01 06:40:00,58.3,57.7,30.00,North,4,0.0,0.0,98,0.00,,---,0.00,VWS V13.01,2014-10-01 10:40:00,
2014-10-01 06:45:00,58.3,57.7,30.00,North,4,0.0,0.0,98,0.00,,---,0.00,VWS V13.01,2014-10-01 10:45:00,
2014-10-01 06:50:00,58.5,57.9,30.00,North,4,0.0,0.0,98,0.00,,---,0.00,VWS V13.01,2014-10-01 10:50:00,
2014-10-01 06:55:00,58.5,57.9,30.03,North,4,0.0,0.0,98,0.00,,---,0.00,VWS V13.01,2014-10-01 10:55:00,
2014-10-01 07:00:00,58.5,57.9,30.03,North,4,0.0,0.0,98,0.00,,---,0.00,VWS V13.01,2014-10-01 11:00:00,
2014-10-01 07:05:00,58.5,57.9,30.03,SE,126,0.0,0.0,98,0.00,,---,0.00,VWS V13.01,2014-10-01 11:05:00,
2014-10-01 07:10:00,58.5,57.9,30.03,ESE,118,0.0,0.0,98,0.00,,---,0.00,VWS V13.01,2014-10-01 11:10:00,
2014-10-01 07:15:00,58.5,57.9,30.03,ESE,118,0.0,0.0,98,0.00,,---,0.00,VWS V13.01,2014-10-01 11:15:00,
2014-10-01 07:21:00,58.3,57.7,30.03,East,89,0.0,0.0,98,0.00,,---,0.00,VWS V13.01,2014-10-01 11:21:00,
2014-10-01 07:26:00,58.5,57.9,30.03,East,89,0.0,0.0,98,0.00,,---,0.00,VWS V13.01,2014-10-01 11:26:00,
2014-10-01 07:31:00,58.5,57.9,30.03,East,89,0.0,0.0,98,0.00,,---,0.00,VWS V13.01,2014-10-01 11:31:00,
2014-10-01 07:36:00,58.5,57.9,30.03,East,89,0.0,0.0,98,0.00,,---,0.00,VWS V13.01,2014-10-01 11:36:00,
2014-10-01 07:42:00,58.5,57.9,30.03,East,89,0.0,0.0,98,0.00,,---,0.00,VWS V13.01,2014-10-01 11:42:00,
2014-10-01 07:45:00,58.5,57.9,30.03,ENE,69,0.0,0.0,98,0.00,,---,0.00,VWS V13.01,2014-10-01 11:45:00,
2014-10-01 07:50:00,58.5,57.9,30.03,ENE,69,0.0,0.0,98,0.00,,---,0.00,VWS V13.01,2014-10-01 11:50:00,
2014-10-01 07:55:00,58.5,57.9,30.03,ENE,74,0.0,0.0,98,0.00,,---,0.00,VWS V13.01,2014-10-01 11:55:00,
2014-10-01 08:00:00,58.5,57.9,30.03,ENE,62,0.0,0.0,98,0.00,,---,0.00,VWS V13.01,2014-10-01 12:00:00,
2014-10-01 08:05:00,58.6,58.1,30.03,ENE,62,0.0,0.0,98,0.00,,---,0.00,VWS V13.01,2014-10-01 12:05:00,
2014-10-01 08:10:00,58.6,58.1,30.03,ENE,62,0.0,0.0,98,0.00,,---,0.00,VWS V13.01,2014-10-01 12:10:00,
2014-10-01 08:15:00,58.8,58.3,30.03,ENE,67,0.0,0.0,98,0.00,,---,0.00,VWS V13.01,2014-10-01 12:15:00,
2014-10-01 08:20:00,58.8,58.3,30.03,ENE,67,0.0,0.0,98,0.00,,---,0.00,VWS V13.01,2014-10-01 12:20:00,
2014-10-01 08:25:00,58.8,58.3,30.03,ENE,67,0.0,0.0,98,0.00,,---,0.00,VWS V13.01,2014-10-01 12:25:00,
2014-10-01 08:30:00,58.8,58.3,30.03,ENE,67,0.0,0.0,98,0.00,,---,0.00,VWS V13.01,2014-10-01 12:30:00,
2014-10-01 08:36:00,58.8,58.3,30.03,ENE,67,0.0,0.0,98,0.00,,---,0.00,VWS V13.01,2014-10-01 12:36:00,
2014-10-01 08:41:00,59.0,58.4,30.03,ENE,67,0.0,0.0,98,0.00,,---,0.00,VWS V13.01,2014-10-01 12:41:00,
2014-10-01 08:46:00,59.0,58.4,30.03,ENE,67,0.0,0.0,98,0.00,,---,0.00,VWS V13.01,2014-10-01 12:46:00,
2014-10-01 08:51:00,59.2,58.6,30.03,ENE,67,0.0,0.0,98,0.00,,---,0.00,VWS V13.01,2014-10-01 12:51:00,
2014-10-01 08:56:00,59.2,58.6,30.03,ENE,67,0.0,0.0,98,0.00,,---,0.00,VWS V13.01,2014-10-01 12:56:00,
2014-10-01 09:01:00,59.2,58.6,30.03,ENE,67,0.0,0.0,98,0.00,,---,0.00,VWS V13.01,2014-10-01 13:01:00,
2014-10-01 09:06:00,59.2,58.6,30.06,NNE,33,0.0,0.0,98,0.00,,---,0.00,VWS V13.01,2014-10-01 13:06:00,
2014-10-01 09:11:00,59.2,58.6,30.06,NE,47,0.0,0.0,98,0.00,,---,0.00,VWS V13.01,2014-10-01 13:11:00,
2014-10-01 09:16:00,59.4,58.8,30.06,NE,47,0.0,0.0,98,0.00,,---,0.00,VWS V13.01,2014-10-01 13:16:00,
2014-10-01 09:21:00,59.4,58.8,30.06,NE,50,0.0,0.0,98,0.00,,---,0.00,VWS V13.01,2014-10-01 13:21:00,
2014-10-01 09:26:00,59.4,58.8,30.06,NNE,15,0.0,0.0,98,0.00,,---,0.00,VWS V13.01,2014-10-01 13:26:00,
2014-10-01 09:31:00,59.4,58.8,30.06,North,7,0.0,0.0,98,0.00,,---,0.00,VWS V13.01,2014-10-01 13:31:00,
2014-10-01 09:37:00,59.5,59.0,30.06,North,7,0.0,0.0,98,0.00,,---,0.00,VWS V13.01,2014-10-01 13:37:00,
2014-10-01 09:42:00,59.5,59.0,30.06,ENE,71,0.0,0.0,98,0.00,,---,0.00,VWS V13.01,2014-10-01 13:42:00,
2014-10-01 09:47:00,59.5,59.0,30.06,SE,134,0.0,0.0,98,0.00,,---,0.00,VWS V13.01,2014-10-01 13:47:00,
2014-10-01 09:52:00,59.7,59.2,30.06,ENE,76,0.0,0.0,98,0.00,,---,0.00,VWS V13.01,2014-10-01 13:52:00,
2014-10-01 09:57:00,59.7,59.2,30.06,ENE,65,0.0,0.0,98,0.00,,---,0.00,VWS V13.01,2014-10-01 13:57:00,
2014-10-01 10:02:00,59.7,59.2,30.06,ENE,65,0.0,0.0,98,0.00,,---,0.00,VWS V13.01,2014-10-01 14:02:00,
2014-10-01 10:07:00,59.9,59.3,30.06,ENE,65,0.0,0.0,98,0.00,,---,0.00,VWS V13.01,2014-10-01 14:07:00,
2014-10-01 10:12:00,60.3,59.7,30.06,ENE,59,0.0,0.0,98,0.00,,---,0.00,VWS V13.01,2014-10-01 14:12:00,
2014-10-01 10:14:00,60.4,59.9,30.06,ENE,59,0.0,0.0,98,0.00,,---,0.00,VWS V13.01,2014-10-01 14:14:00,
2014-10-01 10:19:00,60.4,59.9,30.06,NE,39,0.0,0.0,98,0.00,,---,0.00,VWS V13.01,2014-10-01 14:19:00,
2014-10-01 10:25:00,60.6,60.1,30.06,NE,51,0.0,0.0,98,0.00,,---,0.00,VWS V13.01,2014-10-01 14:25:00,
2014-10-01 10:30:00,60.6,60.1,30.06,East,79,0.0,3.6,98,0.00,,---,0.00,VWS V13.01,2014-10-01 14:30:00,
2014-10-01 10:35:00,60.8,60.2,30.06,ENE,58,0.0,0.0,98,0.00,,---,0.00,VWS V13.01,2014-10-01 14:35:00,
2014-10-01 10:40:00,60.8,60.2,30.06,East,79,0.0,0.0,98,0.00,,---,0.00,VWS V13.01,2014-10-01 14:40:00,
2014-10-01 10:45:00,61.0,60.4,30.06,ENE,68,0.0,0.0,98,0.00,,---,0.00,VWS V13.01,2014-10-01 14:45:00,
2014-10-01 10:50:00,61.0,60.4,30.06,ENE,65,0.0,0.0,98,0.00,,---,0.00,VWS V13.01,2014-10-01 14:50:00,
2014-10-01 10:55:00,61.0,60.4,30.06,ENE,69,0.0,0.0,98,0.00,,---,0.00,VWS V13.01,2014-10-01 14:55:00,
2014-10-01 11:00:00,61.3,60.8,30.06,ENE,71,0.0,0.0,98,0.00,,---,0.00,VWS V13.01,2014-10-01 15:00:00,
2014-10-01 11:05:00,61.5,61.0,30.06,ENE,72,0.0,0.0,98,0.00,,---,0.00,VWS V13.01,2014-10-01 15:05:00,
2014-10-01 11:10:00,61.5,61.0,30.06,NE,35,0.0,0.0,98,0.00,,---,0.00,VWS V13.01,2014-10-01 15:10:00,
2014-10-01 11:16:00,61.3,60.8,30.06,NE,35,0.0,0.0,98,0.00,,---,0.00,VWS V13.01,2014-10-01 15:16:00,
2014-10-01 11:21:00,61.3,60.8,30.06,NE,35,0.0,0.0,98,0.00,,---,0.00,VWS V13.01,2014-10-01 15:21:00,
2014-10-01 11:26:00,61.3,60.8,30.06,NE,35,0.0,0.0,98,0.00,,---,0.00,VWS V13.01,2014-10-01 15:26:00,
2014-10-01 11:31:00,61.3,60.8,30.06,ENE,68,3.1,3.1,98,0.00,,---,0.00,VWS V13.01,2014-10-01 15:31:00,
2014-10-01 12:09:00,61.3,60.8,30.06,East,98,2.2,2.2,98,0.00,,---,0.00,VWS V13.01,2014-10-01 16:09:00,
2014-10-01 12:26:00,61.7,61.1,30.06,NE,42,0.0,0.0,98,0.00,,---,0.00,VWS V13.01,2014-10-01 16:26:00,
2014-10-01 12:36:00,61.7,61.1,30.06,ENE,62,0.0,0.0,98,0.00,,---,0.00,VWS V13.01,2014-10-01 16:36:00,
2014-10-01 13:24:00,63.0,62.4,30.06,NE,49,0.0,0.0,98,0.00,,---,0.00,VWS V13.01,2014-10-01 17:24:00,
2014-10-01 13:50:00,63.5,62.9,30.06,SE,128,0.0,0.0,98,0.00,,---,0.00,VWS V13.01,2014-10-01 17:50:00,
2014-10-01 14:03:00,63.5,62.9,30.06,ENE,69,0.0,0.0,98,0.00,,---,0.00,VWS V13.01,2014-10-01 18:03:00,
2014-10-01 14:14:00,64.0,63.2,30.06,ENE,72,0.0,0.0,97,0.00,,---,0.00,VWS V13.01,2014-10-01 18:14:00,
2014-10-01 14:24:00,64.0,62.9,30.03,ENE,57,0.0,0.0,96,0.00,,---,0.00,VWS V13.01,2014-10-01 18:24:00,
2014-10-01 14:54:00,66.0,63.9,30.03,ENE,65,0.0,0.0,93,0.00,,---,0.00,VWS V13.01,2014-10-01 18:54:00,
2014-10-01 15:09:00,66.6,63.5,30.03,NNE,12,0.0,3.6,90,0.00,,---,0.00,VWS V13.01,2014-10-01 19:09:00,
2014-10-01 15:51:00,67.6,60.9,30.00,NNE,28,3.1,3.1,79,0.00,,---,0.00,VWS V13.01,2014-10-01 19:51:00,
2014-10-01 16:01:00,67.3,59.1,30.03,ENE,71,0.0,0.0,75,0.00,,---,0.00,VWS V13.01,2014-10-01 20:01:00,
2014-10-01 16:12:00,67.3,59.1,30.03,ENE,60,0.0,0.0,75,0.00,,---,0.00,VWS V13.01,2014-10-01 20:12:00,
2014-10-01 16:39:00,67.3,57.6,30.03,ENE,74,0.0,0.0,71,0.00,,---,0.00,VWS V13.01,2014-10-01 20:39:00,
2014-10-01 16:40:00,67.3,57.6,30.03,ENE,74,0.0,0.0,71,0.00,,---,0.00,VWS V13.01,2014-10-01 20:40:00,
2014-10-01 16:54:00,67.3,57.2,30.03,ENE,71,2.7,5.8,70,0.00,,---,0.00,VWS V13.01,2014-10-01 20:54:00,
2014-10-01 17:13:00,66.7,56.3,30.03,ENE,60,2.2,4.0,69,0.00,,---,0.00,VWS V13.01,2014-10-01 21:13:00,
2014-10-01 17:39:00,66.4,55.9,30.03,East,89,0.0,2.7,69,0.00,,---,0.00,VWS V13.01,2014-10-01 21:39:00,
2014-10-01 19:24:00,61.7,57.5,30.06,North,350,4.0,5.8,86,0.00,,---,0.00,VWS V13.01,2014-10-01 23:24:00,
2014-10-01 19:33:00,61.3,57.4,30.06,NE,44,3.6,7.2,87,0.00,,---,0.00,VWS V13.01,2014-10-01 23:33:00,
2014-10-01 19:39:00,61.2,57.6,30.06,NNE,27,7.6,8.1,88,0.00,,---,0.00,VWS V13.01,2014-10-01 23:39:00,
2014-10-01 19:44:00,61.2,57.9,30.06,NNE,22,4.0,6.3,89,0.00,,---,0.00,VWS V13.01,2014-10-01 23:44:00,
2014-10-01 19:54:00,60.8,57.5,30.06,ENE,69,2.7,6.3,89,0.00,,---,0.00,VWS V13.01,2014-10-01 23:54:00,
2014-10-01 20:04:00,60.4,57.8,30.06,North,10,2.7,5.4,91,0.00,,---,0.00,VWS V13.01,2014-10-02 00:04:00,
2014-10-01 20:18:00,60.3,57.9,30.06,NE,56,4.0,5.4,92,0.00,,---,0.00,VWS V13.01,2014-10-02 00:18:00,
2014-10-01 20:49:00,59.9,58.2,30.06,NE,52,4.0,6.3,94,0.00,,---,0.00,VWS V13.01,2014-10-02 00:49:00,
2014-10-01 21:00:00,59.7,58.0,30.06,ENE,64,0.0,5.4,94,0.00,,---,0.00,VWS V13.01,2014-10-02 01:00:00,
2014-10-01 21:07:00,59.5,58.1,30.06,East,87,3.6,6.3,95,0.00,,---,0.00,VWS V13.01,2014-10-02 01:07:00,
2014-10-01 21:13:00,59.5,58.1,30.06,NNE,33,2.7,4.9,95,0.00,,---,0.00,VWS V13.01,2014-10-02 01:13:00,
2014-10-01 21:24:00,59.4,58.2,30.06,SE,139,5.8,5.8,96,0.00,,---,0.00,VWS V13.01,2014-10-02 01:24:00,
2014-10-01 21:33:00,59.5,58.4,30.06,NE,46,4.9,6.3,96,0.00,,---,0.00,VWS V13.01,2014-10-02 01:33:00,
2014-10-01 21:40:00,59.5,58.4,30.06,East,81,0.0,0.0,96,0.00,,---,0.00,VWS V13.01,2014-10-02 01:40:00,
2014-10-01 21:48:00,59.5,58.7,30.06,ESE,122,0.0,3.6,97,0.00,,---,0.00,VWS V13.01,2014-10-02 01:48:00,
2014-10-01 21:59:00,59.5,58.7,30.06,ENE,78,4.0,5.8,97,0.00,,---,0.00,VWS V13.01,2014-10-02 01:59:00,
2014-10-01 22:12:00,59.7,59.2,30.09,SE,125,0.0,0.0,98,0.00,,---,0.00,VWS V13.01,2014-10-02 02:12:00,
2014-10-01 22:23:00,59.5,59.0,30.09,ENE,64,2.2,4.0,98,0.00,,---,0.00,VWS V13.01,2014-10-02 02:23:00,
2014-10-01 22:34:00,59.5,59.0,30.09,ESE,111,0.0,0.0,98,0.00,,---,0.00,VWS V13.01,2014-10-02 02:34:00,
2014-10-01 22:45:00,59.7,59.2,30.09,SE,126,0.0,2.7,98,0.00,,---,0.00,VWS V13.01,2014-10-02 02:45:00,